Dividing Creek, New Jersey
Current Conditions -  °F | °C
As of 9:54 AM on Wednesday 22 Oct 2014 (Local Time) from KMIV Reporting Station
Broken Clouds Broken Clouds  
Wind Chill: 57°   Ceiling: 6000
Heat Index: 57°   Visibility: 10mi
Dew Point: 51°   Wind: 18mph
Humidity: 81%   Direction: 20°NNE
Pressure: 29.84"   Gusts: 26mph
Location:  39.27°N, 75.1°W
Report Text: KMIV 221354Z AUTO 02016G23KT 10SM FEW015 SCT027 BKN060 14/11 A2984 RMK AO2 SLP102 T01390106 PNO $
Loading
Personal Weather Stations






























Interactive Weather Map
Tropical Storm Tracking
New forecast layout! Learn more

10-Day Weather Forecast

Advertisements
Track Severe Weather on mobile